Time;durP1;ratioP1;P1;durP2;ratioP2;P2;SDS_P1;SDS_P2;PMS_P1;PMS_P2;Temp;Humidity;BMP_temperature;BMP_pressure;BME280_temperature;BME280_humidity;BME280_pressure;Samples;Min_cycle;Max_cycle;Signal;HPM_P1;HPM_P2
2022/03/08 00:00:27;;;;;;;;;;;;;;;12.99;39.17;101628.84;4978807;28;98523;-69
2022/03/08 00:02:54;;;;;;;;;;;;;;;12.97;39.08;101628.28;4961343;28;105350;-65
2022/03/08 00:05:20;;;;;;;;;;;;;;;12.95;39.10;101632.31;4942537;28;98325;-70
2022/03/08 00:07:47;;;;;;;;;;;;;;;12.93;39.11;101632.56;4954804;28;120608;-69
2022/03/08 00:10:13;;;;;;;;;;;;;;;12.93;39.13;101634.44;4960662;28;99473;-64
2022/03/08 00:12:38;;;;;;;;;;;;;;;12.90;39.01;101633.06;4961123;28;108633;-71
2022/03/08 00:15:12;;;;;;;;;;;;;;;12.89;39.22;101634.16;4970770;28;126957;-69
2022/03/08 00:17:38;;;;;;;;;;;;;;;12.87;39.18;101635.47;4981076;28;105638;-70
2022/03/08 00:20:06;;;;;;;;;;;;;;;12.86;38.95;101637.38;4972206;28;98016;-63
2022/03/08 00:22:33;;;;;;;;;;;;;;;12.85;39.12;101629.47;4962344;28;97808;-63
2022/03/08 00:25:01;;;;;;;;;;;;;;;12.83;39.06;101634.34;4943112;28;123433;-63
2022/03/08 00:27:28;;;;;;;;;;;;;;;12.80;39.22;101627.53;4927757;28;98322;-63
2022/03/08 00:29:54;;;;;;;;;;;;;;;12.80;38.92;101630.25;4961300;28;98233;-69
2022/03/08 00:32:19;;;;;;;;;;;;;;;12.78;39.06;101629.69;4959010;28;117375;-63
2022/03/08 00:34:45;;;;;;;;;;;;;;;12.77;39.17;101628.03;4960377;28;128094;-63
2022/03/08 00:37:11;;;;;;;;;;;;;;;12.73;39.08;101621.50;4978393;28;128201;-63
2022/03/08 00:39:37;;;;;;;;;;;;;;;12.72;39.20;101625.28;4972032;28;126698;-71
2022/03/08 00:42:03;;;;;;;;;;;;;;;12.70;39.27;101616.63;4956659;28;117861;-63
2022/03/08 00:44:29;;;;;;;;;;;;;;;12.70;39.16;101619.34;4961765;28;116990;-63
2022/03/08 00:46:55;;;;;;;;;;;;;;;12.67;39.35;101617.94;4961080;28;115081;-63
2022/03/08 00:49:21;;;;;;;;;;;;;;;12.65;39.05;101617.38;4961400;28;97905;-70
2022/03/08 00:51:47;;;;;;;;;;;;;;;12.64;39.27;101604.91;4973817;28;115558;-71
2022/03/08 00:54:13;;;;;;;;;;;;;;;12.62;39.26;101601.66;4980465;28;127206;-63
2022/03/08 00:56:39;;;;;;;;;;;;;;;12.61;39.13;101607.31;4979327;28;128064;-63
2022/03/08 00:59:05;;;;;;;;;;;;;;;12.59;39.18;101598.66;4980080;28;125726;-63
2022/03/08 01:01:31;;;;;;;;;;;;;;;12.57;39.41;101604.28;4975489;28;117346;-70
2022/03/08 01:03:56;;;;;;;;;;;;;;;12.56;39.28;101607.25;4961643;28;128625;-69
2022/03/08 01:06:22;;;;;;;;;;;;;;;12.55;39.12;101611.03;4979633;28;128039;-71
2022/03/08 01:08:48;;;;;;;;;;;;;;;12.53;39.14;101603.16;4980617;28;128196;-71
2022/03/08 01:11:14;;;;;;;;;;;;;;;12.51;38.98;101605.31;4977510;27;105939;-71
2022/03/08 01:13:41;;;;;;;;;;;;;;;12.49;39.30;101597.44;4981229;28;127576;-63
2022/03/08 01:16:06;;;;;;;;;;;;;;;12.47;39.21;101598.78;4977554;28;121164;-63
2022/03/08 01:18:32;;;;;;;;;;;;;;;12.45;39.18;101607.13;4979875;28;127029;-70
2022/03/08 01:20:58;;;;;;;;;;;;;;;12.44;39.28;101594.69;4969352;27;117477;-71
2022/03/08 01:23:24;;;;;;;;;;;;;;;12.43;39.42;101603.88;4960424;28;98445;-71
2022/03/08 01:25:50;;;;;;;;;;;;;;;12.42;38.83;101590.63;4960048;28;127335;-64
2022/03/08 01:28:16;;;;;;;;;;;;;;;12.40;39.43;101587.34;4960269;28;128238;-69
2022/03/08 01:30:42;;;;;;;;;;;;;;;12.38;38.99;101582.19;4941407;28;117186;-71
2022/03/08 01:33:08;;;;;;;;;;;;;;;12.37;39.17;101583.22;4960187;28;127163;-63
2022/03/08 01:35:34;;;;;;;;;;;;;;;12.36;39.15;101588.91;4962100;28;129066;-70
2022/03/08 01:38:00;;;;;;;;;;;;;;;12.32;39.22;101585.06;4960685;28;97901;-63
2022/03/08 01:40:28;;;;;;;;;;;;;;;12.32;38.94;101576.97;4968108;28;98109;-65
2022/03/08 01:42:54;;;;;;;;;;;;;;;12.31;39.25;101572.63;4959884;28;121303;-64
2022/03/08 01:45:23;;;;;;;;;;;;;;;12.29;38.89;101580.97;4970749;28;124898;-70
2022/03/08 01:47:49;;;;;;;;;;;;;;;12.26;39.31;101582.31;4962153;28;98246;-64
2022/03/08 01:50:15;;;;;;;;;;;;;;;12.25;38.78;101575.25;4976738;28;98172;-69
2022/03/08 01:52:41;;;;;;;;;;;;;;;12.24;39.14;101578.22;4980303;28;98918;-63
2022/03/08 01:55:08;;;;;;;;;;;;;;;12.23;39.01;101569.28;4978758;28;110344;-69
2022/03/08 01:57:34;;;;;;;;;;;;;;;12.22;39.25;101564.13;4955517;28;98181;-71
2022/03/08 02:00:00;;;;;;;;;;;;;;;12.20;39.35;101563.56;4970786;28;98063;-71
2022/03/08 02:02:26;;;;;;;;;;;;;;;12.19;39.20;101565.47;4959600;28;127995;-71
2022/03/08 02:04:52;;;;;;;;;;;;;;;12.17;39.05;101569.47;4959340;28;127048;-63
2022/03/08 02:07:18;;;;;;;;;;;;;;;12.16;39.34;101579.47;4959326;28;127813;-63
2022/03/08 02:09:44;;;;;;;;;;;;;;;12.14;39.31;101562.66;4940566;28;111133;-71
2022/03/08 02:12:10;;;;;;;;;;;;;;;12.13;39.06;101568.34;4976761;28;127515;-71
2022/03/08 02:14:36;;;;;;;;;;;;;;;12.12;39.38;101577.53;4971114;28;98573;-71
2022/03/08 02:17:02;;;;;;;;;;;;;;;12.10;39.29;101577.75;4960132;28;98043;-63
2022/03/08 02:19:28;;;;;;;;;;;;;;;12.08;39.08;101571.81;4959587;28;106998;-63
2022/03/08 02:21:55;;;;;;;;;;;;;;;12.07;39.21;101572.88;4965668;28;98402;-64
2022/03/08 02:24:21;;;;;;;;;;;;;;;12.06;39.48;101573.91;4960721;28;98962;-71
2022/03/08 02:26:47;;;;;;;;;;;;;;;12.03;39.01;101575.25;4978236;28;127677;-70
2022/03/08 02:29:13;;;;;;;;;;;;;;;12.02;39.45;101575.50;4965386;28;98082;-63
2022/03/08 02:31:39;;;;;;;;;;;;;;;12.00;39.30;101569.53;4965610;28;119912;-70
2022/03/08 02:34:05;;;;;;;;;;;;;;;11.99;39.09;101568.72;4979285;28;98295;-70
2022/03/08 02:36:31;;;;;;;;;;;;;;;11.98;39.06;101567.06;4963660;28;117894;-71
2022/03/08 02:38:57;;;;;;;;;;;;;;;11.97;39.08;101557.34;4967658;28;99688;-71
2022/03/08 02:41:24;;;;;;;;;;;;;;;11.96;39.48;101565.69;4944719;28;107019;-69
2022/03/08 02:43:50;;;;;;;;;;;;;;;11.94;39.29;101565.94;4962905;28;99610;-70
2022/03/08 02:46:16;;;;;;;;;;;;;;;11.93;39.29;101575.09;4975628;28;111026;-63
2022/03/08 02:48:41;;;;;;;;;;;;;;;11.92;39.16;101568.06;4947363;28;116850;-63
2022/03/08 02:51:07;;;;;;;;;;;;;;;11.91;39.44;101566.44;4973364;28;127948;-71
2022/03/08 02:53:33;;;;;;;;;;;;;;;11.90;38.97;101558.56;4979415;28;127617;-63
2022/03/08 02:55:59;;;;;;;;;;;;;;;11.89;38.97;101562.34;4979545;28;127482;-63
2022/03/08 02:58:25;;;;;;;;;;;;;;;11.87;39.25;101561.78;4964952;28;98049;-63
2022/03/08 03:00:51;;;;;;;;;;;;;;;11.85;39.25;101570.13;4959275;28;128535;-71
2022/03/08 03:03:17;;;;;;;;;;;;;;;11.83;39.19;101566.00;4962375;28;116301;-71
2022/03/08 03:05:43;;;;;;;;;;;;;;;11.82;39.24;101573.31;4967844;28;127893;-71
2022/03/08 03:08:09;;;;;;;;;;;;;;;11.80;39.22;101575.44;4980141;28;117545;-63
2022/03/08 03:10:35;;;;;;;;;;;;;;;11.78;39.38;101572.16;4980195;28;98347;-70
2022/03/08 03:13:01;;;;;;;;;;;;;;;11.76;39.08;101571.59;4982882;28;99353;-63
2022/03/08 03:15:28;;;;;;;;;;;;;;;11.75;39.56;101583.44;4980866;28;98618;-63
2022/03/08 03:17:54;;;;;;;;;;;;;;;11.73;39.34;101586.41;4983461;28;98034;-63
2022/03/08 03:20:21;;;;;;;;;;;;;;;11.72;38.94;101598.28;4980889;28;124705;-70
2022/03/08 03:22:47;;;;;;;;;;;;;;;11.70;39.20;101594.19;4979739;28;121699;-63
2022/03/08 03:25:13;;;;;;;;;;;;;;;11.69;38.96;101597.97;4981495;28;98103;-71
2022/03/08 03:27:39;;;;;;;;;;;;;;;11.68;38.98;101596.34;4983563;28;97814;-71
2022/03/08 03:30:07;;;;;;;;;;;;;;;11.66;39.00;101606.56;4982103;28;99313;-63
2022/03/08 03:32:33;;;;;;;;;;;;;;;11.64;39.05;101601.41;4982587;27;98323;-63
2022/03/08 03:35:00;;;;;;;;;;;;;;;11.63;39.44;101607.03;4980691;28;98637;-63
2022/03/08 03:37:26;;;;;;;;;;;;;;;11.63;39.34;101613.28;4981140;28;98176;-71
2022/03/08 03:39:52;;;;;;;;;;;;;;;11.61;39.52;101611.88;4981846;28;121853;-63
2022/03/08 03:42:18;;;;;;;;;;;;;;;11.60;39.55;101610.25;4962107;28;127655;-71
2022/03/08 03:44:44;;;;;;;;;;;;;;;11.58;39.25;101615.88;4961878;28;117434;-63
2022/03/08 03:47:10;;;;;;;;;;;;;;;11.55;39.52;101617.22;4961251;28;117555;-69
2022/03/08 03:49:36;;;;;;;;;;;;;;;11.55;38.94;101616.38;4960635;28;128048;-69
2022/03/08 03:52:02;;;;;;;;;;;;;;;11.53;39.30;101615.81;4962009;28;126717;-69
2022/03/08 03:54:28;;;;;;;;;;;;;;;11.51;39.38;101623.34;4967968;28;98031;-63
2022/03/08 03:56:54;;;;;;;;;;;;;;;11.51;39.20;101617.94;4981492;28;117692;-63
2022/03/08 03:59:20;;;;;;;;;;;;;;;11.49;39.36;101620.88;4981072;28;101325;-71
2022/03/08 04:01:46;;;;;;;;;;;;;;;11.47;39.06;101617.59;4966040;28;128769;-69
2022/03/08 04:04:12;;;;;;;;;;;;;;;11.46;39.01;101624.06;4962677;28;126919;-71
2022/03/08 04:06:38;;;;;;;;;;;;;;;11.44;38.96;101620.81;4982396;28;98451;-64
2022/03/08 04:09:04;;;;;;;;;;;;;;;11.44;39.01;101614.59;4981666;28;104084;-64
2022/03/08 04:11:30;;;;;;;;;;;;;;;11.42;39.34;101617.53;4979202;28;98348;-63
2022/03/08 04:13:56;;;;;;;;;;;;;;;11.40;39.38;101610.75;4977523;28;101960;-63
2022/03/08 04:16:22;;;;;;;;;;;;;;;11.39;38.96;101618.00;4962376;28;98108;-63
2022/03/08 04:18:48;;;;;;;;;;;;;;;11.37;39.45;101622.03;4957228;28;128182;-63
2022/03/08 04:21:13;;;;;;;;;;;;;;;11.36;38.96;101615.81;4951738;28;128229;-63
2022/03/08 04:23:39;;;;;;;;;;;;;;;11.33;39.23;101619.00;4980240;28;102222;-63
2022/03/08 04:26:05;;;;;;;;;;;;;;;11.33;39.05;101618.19;4962518;28;118557;-71
2022/03/08 04:28:31;;;;;;;;;;;;;;;11.31;39.16;101618.41;4979345;28;126762;-63
2022/03/08 04:30:57;;;;;;;;;;;;;;;11.30;38.91;101614.09;4979437;28;127855;-69
2022/03/08 04:33:23;;;;;;;;;;;;;;;11.29;39.19;101617.84;4980222;28;128311;-69
2022/03/08 04:35:49;;;;;;;;;;;;;;;11.27;39.29;101611.88;4979984;28;116707;-63
2022/03/08 04:38:15;;;;;;;;;;;;;;;11.25;39.24;101614.00;4979520;28;108469;-63
2022/03/08 04:40:41;;;;;;;;;;;;;;;11.25;39.35;101608.63;4973932;28;127076;-69
2022/03/08 04:43:07;;;;;;;;;;;;;;;11.24;38.89;101612.38;4943117;28;115827;-69
2022/03/08 04:45:33;;;;;;;;;;;;;;;11.22;38.93;101609.09;4976111;28;99436;-69
2022/03/08 04:47:59;;;;;;;;;;;;;;;11.21;39.29;101612.88;4978761;28;127751;-71
2022/03/08 04:50:25;;;;;;;;;;;;;;;11.18;38.88;101619.56;4981002;28;98296;-69
2022/03/08 04:52:51;;;;;;;;;;;;;;;11.18;39.55;101618.75;4980273;28;127467;-62
2022/03/08 04:55:18;;;;;;;;;;;;;;;11.16;39.80;101621.69;4977557;28;97781;-63
2022/03/08 04:57:44;;;;;;;;;;;;;;;11.14;39.20;101625.69;4981320;28;98182;-70
2022/03/08 05:00:12;;;;;;;;;;;;;;;11.13;39.43;101626.75;4978744;28;99380;-71
2022/03/08 05:02:41;;;;;;;;;;;;;;;11.12;39.50;101625.09;4962127;28;98359;-63
2022/03/08 05:05:08;;;;;;;;;;;;;;;11.10;39.59;101627.22;4973541;28;106397;-63
2022/03/08 05:07:35;;;;;;;;;;;;;;;11.08;39.13;101624.75;4980770;28;99053;-63
2022/03/08 05:10:03;;;;;;;;;;;;;;;11.07;39.37;101628.53;4980361;28;98796;-70
2022/03/08 05:12:29;;;;;;;;;;;;;;;11.05;39.31;101622.56;4980847;28;101253;-62
2022/03/08 05:14:54;;;;;;;;;;;;;;;11.04;39.61;101629.00;4981059;28;97970;-71
2022/03/08 05:17:20;;;;;;;;;;;;;;;11.03;39.20;101624.69;4981033;28;98432;-62
2022/03/08 05:19:47;;;;;;;;;;;;;;;11.02;39.58;101631.16;4961773;28;99787;-62
2022/03/08 05:22:13;;;;;;;;;;;;;;;11.01;39.05;101635.72;4980634;28;98558;-63
2022/03/08 05:24:39;;;;;;;;;;;;;;;11.00;39.13;101625.16;4979175;28;117112;-68
2022/03/08 05:27:05;;;;;;;;;;;;;;;10.99;39.36;101627.03;4974720;28;120504;-63
2022/03/08 05:29:31;;;;;;;;;;;;;;;10.98;39.43;101636.19;4961815;28;98601;-69
2022/03/08 05:31:57;;;;;;;;;;;;;;;10.96;39.16;101632.91;4959375;28;128169;-69
2022/03/08 05:34:23;;;;;;;;;;;;;;;10.96;39.55;101630.22;4957552;28;117614;-63
2022/03/08 05:36:49;;;;;;;;;;;;;;;10.94;39.53;101629.66;4962280;28;128213;-69
2022/03/08 05:39:15;;;;;;;;;;;;;;;10.95;39.50;101635.84;4976719;28;97753;-63
2022/03/08 05:41:41;;;;;;;;;;;;;;;10.94;39.35;101637.75;4949521;28;98807;-70
2022/03/08 05:44:07;;;;;;;;;;;;;;;10.94;39.33;101647.72;4975839;28;102548;-63
2022/03/08 05:46:33;;;;;;;;;;;;;;;10.93;39.26;101646.09;4976156;28;128099;-63
2022/03/08 05:48:59;;;;;;;;;;;;;;;10.94;39.49;101653.13;4960062;28;126940;-63
2022/03/08 05:51:25;;;;;;;;;;;;;;;10.94;39.62;101658.50;4958047;28;127586;-70
2022/03/08 05:53:51;;;;;;;;;;;;;;;10.94;38.95;101648.53;4979439;28;117166;-69
2022/03/08 05:56:17;;;;;;;;;;;;;;;10.94;39.05;101647.72;4964406;28;128168;-63
2022/03/08 05:58:43;;;;;;;;;;;;;;;10.95;39.04;101652.84;4959487;28;127105;-69
2022/03/08 06:01:08;;;;;;;;;;;;;;;10.95;39.37;101647.47;4964887;28;126929;-69
2022/03/08 06:03:34;;;;;;;;;;;;;;;10.95;39.19;101652.84;4959927;28;117525;-70
2022/03/08 06:06:00;;;;;;;;;;;;;;;10.98;39.16;101649.69;4960238;28;113307;-64
2022/03/08 06:08:26;;;;;;;;;;;;;;;11.00;39.37;101655.69;4941251;28;127992;-65
2022/03/08 06:10:52;;;;;;;;;;;;;;;11.02;39.19;101661.63;4958406;28;128328;-70
2022/03/08 06:13:18;;;;;;;;;;;;;;;11.06;39.43;101665.50;4960610;28;98046;-67
2022/03/08 06:15:44;;;;;;;;;;;;;;;11.11;38.87;101669.34;4978342;28;128286;-63
2022/03/08 06:18:10;;;;;;;;;;;;;;;11.13;39.01;101675.31;4979382;28;127520;-63
2022/03/08 06:20:36;;;;;;;;;;;;;;;11.17;39.05;101676.47;4962591;28;127274;-63
2022/03/08 06:23:02;;;;;;;;;;;;;;;11.22;38.77;101687.38;4960067;28;104206;-63
2022/03/08 06:25:28;;;;;;;;;;;;;;;11.24;38.84;101686.06;4959922;28;99057;-69
2022/03/08 06:27:54;;;;;;;;;;;;;;;11.30;39.27;101695.88;4941709;28;100263;-69
2022/03/08 06:30:19;;;;;;;;;;;;;;;11.34;39.31;101692.69;4943051;28;123661;-69
2022/03/08 06:32:45;;;;;;;;;;;;;;;11.38;39.23;101689.28;4977283;28;114759;-69
2022/03/08 06:35:13;;;;;;;;;;;;;;;11.49;38.77;101683.00;4979192;28;98376;-69
2022/03/08 06:37:39;;;;;;;;;;;;;;;11.58;39.24;101682.59;4956668;28;98324;-63
2022/03/08 06:40:06;;;;;;;;;;;;;;;11.61;39.02;101687.50;4941277;28;120339;-63
2022/03/08 06:42:32;;;;;;;;;;;;;;;11.67;39.02;101691.91;4961031;28;98146;-69
2022/03/08 06:44:58;;;;;;;;;;;;;;;11.72;38.71;101683.91;4964262;28;128928;-70
2022/03/08 06:47:24;;;;;;;;;;;;;;;11.77;38.88;101689.38;4959024;28;127388;-70
2022/03/08 06:49:50;;;;;;;;;;;;;;;11.80;38.92;101683.50;4958871;28;105117;-69
2022/03/08 06:52:15;;;;;;;;;;;;;;;11.86;39.06;101687.13;4963813;28;98020;-70
2022/03/08 06:54:41;;;;;;;;;;;;;;;11.90;38.76;101685.56;4959297;28;100507;-70
2022/03/08 06:57:07;;;;;;;;;;;;;;;11.96;39.10;101687.28;4975840;28;127337;-70
2022/03/08 06:59:33;;;;;;;;;;;;;;;12.02;38.76;101689.84;4965810;28;98221;-70
2022/03/08 07:01:59;;;;;;;;;;;;;;;12.09;38.89;101689.63;4973319;28;117560;-70
2022/03/08 07:04:25;;;;;;;;;;;;;;;12.16;39.10;101693.00;4979302;28;99187;-63
2022/03/08 07:06:52;;;;;;;;;;;;;;;12.20;39.05;101691.44;4961155;28;98481;-69
2022/03/08 07:09:17;;;;;;;;;;;;;;;12.28;38.96;101699.13;4978067;28;98379;-64
2022/03/08 07:11:43;;;;;;;;;;;;;;;12.37;38.87;101696.78;4980308;28;110750;-64
2022/03/08 07:14:15;;;;;;;;;;;;;;;12.43;38.98;101689.59;4982305;28;98216;-64
2022/03/08 07:16:44;;;;;;;;;;;;;;;12.58;39.01;101697.09;4981274;28;98414;-64
2022/03/08 07:19:11;;;;;;;;;;;;;;;12.71;38.98;101697.53;4976395;28;98023;-69
2022/03/08 07:21:37;;;;;;;;;;;;;;;12.72;39.07;101699.16;4973436;28;98171;-64
2022/03/08 07:24:03;;;;;;;;;;;;;;;12.77;39.22;101701.94;4962706;28;99013;-70
2022/03/08 07:26:29;;;;;;;;;;;;;;;12.82;39.19;101698.47;4975148;28;120397;-64
2022/03/08 07:28:55;;;;;;;;;;;;;;;12.93;39.11;101696.69;4961895;28;127732;-69
2022/03/08 07:31:21;;;;;;;;;;;;;;;13.11;38.93;101698.25;4971909;28;116699;-64
2022/03/08 07:33:47;;;;;;;;;;;;;;;13.19;39.14;101698.59;4981694;28;127477;-69
2022/03/08 07:36:13;;;;;;;;;;;;;;;13.36;38.90;101700.41;4981597;28;98944;-70
2022/03/08 07:38:39;;;;;;;;;;;;;;;13.46;38.96;101701.34;4981400;28;126613;-64
2022/03/08 07:41:05;;;;;;;;;;;;;;;13.58;39.11;101694.94;4981876;28;116473;-69
2022/03/08 07:43:31;;;;;;;;;;;;;;;13.70;39.11;101690.16;4982451;28;98142;-64
2022/03/08 07:45:57;;;;;;;;;;;;;;;13.87;39.27;101680.03;4981907;28;98159;-64
2022/03/08 07:48:23;;;;;;;;;;;;;;;14.07;38.98;101682.06;4963975;28;126763;-64
2022/03/08 07:50:49;;;;;;;;;;;;;;;14.28;39.01;101684.88;4957351;28;117536;-63
2022/03/08 07:53:15;;;;;;;;;;;;;;;14.47;39.16;101678.75;4980870;28;128288;-68
2022/03/08 07:55:40;;;;;;;;;;;;;;;14.71;39.00;101671.00;4940298;28;128750;-69
2022/03/08 07:58:11;;;;;;;;;;;;;;;14.95;38.93;101667.81;4961879;28;115239;-68
2022/03/08 08:00:37;;;;;;;;;;;;;;;15.25;38.99;101668.97;4954302;28;99560;-70
2022/03/08 08:03:03;;;;;;;;;;;;;;;15.57;38.57;101671.44;4960957;28;122094;-69
2022/03/08 08:05:29;;;;;;;;;;;;;;;15.94;38.48;101672.00;4962467;28;98399;-69
2022/03/08 08:07:55;;;;;;;;;;;;;;;16.49;37.99;101671.31;4943653;28;106657;-64
2022/03/08 08:10:21;;;;;;;;;;;;;;;17.16;37.38;101675.34;4961482;28;116568;-64
2022/03/08 08:12:47;;;;;;;;;;;;;;;18.09;36.58;101677.06;4966002;28;129050;-69
2022/03/08 08:15:13;;;;;;;;;;;;;;;19.24;35.62;101682.47;4971635;28;127800;-69
2022/03/08 08:17:39;;;;;;;;;;;;;;;20.37;34.73;101684.09;4961554;28;97688;-64
2022/03/08 08:20:05;;;;;;;;;;;;;;;21.61;33.66;101694.00;4961054;28;97970;-64
2022/03/08 08:22:31;;;;;;;;;;;;;;;22.54;33.14;101691.28;4961694;28;118274;-69
2022/03/08 08:24:57;;;;;;;;;;;;;;;23.74;32.51;101699.97;4960413;28;127959;-64
2022/03/08 08:27:23;;;;;;;;;;;;;;;25.69;30.75;101697.84;4962048;28;98552;-68
2022/03/08 08:29:49;;;;;;;;;;;;;;;27.44;29.50;101708.19;4975029;28;117508;-64
2022/03/08 08:32:15;;;;;;;;;;;;;;;28.89;28.35;101708.72;4980508;28;127340;-68
2022/03/08 08:34:41;;;;;;;;;;;;;;;29.92;28.34;101712.81;4980173;28;104583;-64
2022/03/08 08:37:07;;;;;;;;;;;;;;;31.11;27.36;101714.28;4980944;28;125919;-65
2022/03/08 08:39:33;;;;;;;;;;;;;;;32.01;27.15;101710.53;4981325;28;97792;-70
2022/03/08 08:41:59;;;;;;;;;;;;;;;32.73;26.79;101709.88;4979048;28;112614;-64
2022/03/08 08:44:26;;;;;;;;;;;;;;;33.34;27.07;101706.59;4963611;28;127216;-62
2022/03/08 08:46:53;;;;;;;;;;;;;;;34.18;26.48;101698.78;4964373;28;97912;-67
2022/03/08 08:49:19;;;;;;;;;;;;;;;35.03;25.97;101694.25;4966704;28;98460;-66
2022/03/08 08:51:44;;;;;;;;;;;;;;;35.72;25.61;101692.66;4960396;28;127223;-67
2022/03/08 08:54:10;;;;;;;;;;;;;;;36.43;25.50;101692.06;4960933;28;127941;-66
2022/03/08 08:56:38;;;;;;;;;;;;;;;37.37;24.93;101688.94;4942682;28;126298;-67
2022/03/08 08:59:04;;;;;;;;;;;;;;;38.35;24.72;101685.00;4962455;28;98549;-62
2022/03/08 09:01:30;;;;;;;;;;;;;;;39.11;24.11;101681.50;4942362;28;120591;-67
2022/03/08 09:03:56;;;;;;;;;;;;;;;39.57;24.46;101674.00;4959715;28;98357;-67
2022/03/08 09:06:22;;;;;;;;;;;;;;;40.36;23.69;101667.19;4961426;28;100351;-62
2022/03/08 09:08:48;;;;;;;;;;;;;;;41.25;23.34;101664.59;4960629;28;118072;-66
2022/03/08 09:11:14;;;;;;;;;;;;;;;41.99;22.73;101660.59;4947757;28;128257;-62
2022/03/08 09:13:40;;;;;;;;;;;;;;;42.87;22.35;101658.59;4981113;28;113878;-67
2022/03/08 09:16:06;;;;;;;;;;;;;;;43.90;21.78;101657.72;4980467;28;105796;-62
2022/03/08 09:18:32;;;;;;;;;;;;;;;44.56;21.55;101652.34;4981233;28;97864;-62
2022/03/08 09:20:58;;;;;;;;;;;;;;;44.97;21.33;101647.22;4980877;28;107397;-63
2022/03/08 09:23:24;;;;;;;;;;;;;;;44.91;21.66;101641.38;4979669;28;129147;-67
2022/03/08 09:25:50;;;;;;;;;;;;;;;44.76;21.70;101634.81;4981352;28;98215;-68
2022/03/08 09:28:16;;;;;;;;;;;;;;;44.37;21.10;101640.22;4979833;28;117128;-62
2022/03/08 09:30:43;;;;;;;;;;;;;;;44.22;20.38;101633.63;4979796;27;127062;-68
2022/03/08 09:33:09;;;;;;;;;;;;;;;43.61;19.72;101630.56;4961106;28;98533;-63
2022/03/08 09:35:35;;;;;;;;;;;;;;;42.83;19.88;101635.25;4980173;28;107058;-65
2022/03/08 09:38:02;;;;;;;;;;;;;;;41.66;20.06;101638.25;4980828;28;109006;-63
2022/03/08 09:40:28;;;;;;;;;;;;;;;40.60;20.29;101629.00;4980175;28;98303;-61
2022/03/08 09:42:54;;;;;;;;;;;;;;;39.88;20.51;101627.31;4979619;28;127990;-62
2022/03/08 09:45:20;;;;;;;;;;;;;;;39.55;21.11;101632.16;4960564;28;126519;-62
2022/03/08 09:47:46;;;;;;;;;;;;;;;39.70;21.61;101630.59;4960892;28;98179;-63
2022/03/08 09:50:12;;;;;;;;;;;;;;;40.33;21.37;101634.22;4958614;28;128087;-62
2022/03/08 09:52:39;;;;;;;;;;;;;;;41.17;20.90;101621.63;4960334;28;98867;-63
2022/03/08 09:55:05;;;;;;;;;;;;;;;41.68;20.96;101624.41;4960574;28;97925;-63
2022/03/08 09:57:32;;;;;;;;;;;;;;;41.90;21.28;101620.88;4961365;28;97700;-62
2022/03/08 09:59:58;;;;;;;;;;;;;;;42.05;21.44;101616.28;4959816;28;98134;-62
2022/03/08 10:02:24;;;;;;;;;;;;;;;42.15;21.19;101603.78;4960688;28;99367;-62
2022/03/08 10:05:05;;;;;;;;;;;;;;;42.18;21.81;101602.88;4959502;28;125387;-63
2022/03/08 10:07:31;;;;;;;;;;;;;;;42.28;21.88;101597.28;4960850;28;107907;-62
2022/03/08 10:09:58;;;;;;;;;;;;;;;42.26;22.16;101608.31;4952359;28;98221;-62
2022/03/08 10:12:24;;;;;;;;;;;;;;;42.18;22.47;101607.75;4960244;28;98963;-62
2022/03/08 10:14:50;;;;;;;;;;;;;;;42.16;22.23;101602.53;4959005;28;115667;-62
2022/03/08 10:17:35;;;;;;;;;;;;;;;41.79;23.02;101598.59;4941079;28;116836;-62
2022/03/08 10:20:02;;;;;;;;;;;;;;;41.24;23.35;101598.00;4941459;28;97968;-62
2022/03/08 10:22:30;;;;;;;;;;;;;;;40.51;24.27;101592.13;4959271;28;112276;-62
2022/03/08 10:25:16;;;;;;;;;;;;;;;39.82;24.91;101591.63;4960154;28;98318;-63
2022/03/08 10:27:51;;;;;;;;;;;;;;;39.21;25.37;101587.44;4959143;28;97867;-62
2022/03/08 10:30:17;;;;;;;;;;;;;;;38.76;25.43;101590.88;4934181;28;99764;-62
2022/03/08 10:32:44;;;;;;;;;;;;;;;38.42;25.93;101594.78;4958544;28;126900;-63
2022/03/08 10:35:10;;;;;;;;;;;;;;;38.12;26.49;101587.31;4941372;28;98103;-63
2022/03/08 10:37:37;;;;;;;;;;;;;;;37.86;26.51;101591.81;4960675;28;97895;-63
2022/03/08 10:40:07;;;;;;;;;;;;;;;37.61;27.11;101583.78;4959502;28;122087;-63
2022/03/08 10:42:37;;;;;;;;;;;;;;;37.37;27.03;101587.78;4959497;28;98890;-63
2022/03/08 10:45:05;;;;;;;;;;;;;;;37.14;27.39;101583.75;4962685;28;98388;-62
2022/03/08 10:47:45;;;;;;;;;;;;;;;36.96;27.46;101580.38;4944553;28;112139;-62
2022/03/08 10:50:14;;;;;;;;;;;;;;;36.78;27.47;101580.59;4960599;28;98650;-62
2022/03/08 10:52:42;;;;;;;;;;;;;;;36.65;27.92;101573.97;4963395;28;98610;-63
2022/03/08 10:55:08;;;;;;;;;;;;;;;36.55;28.17;101573.69;4962588;28;123213;-63
2022/03/08 10:57:34;;;;;;;;;;;;;;;36.48;28.04;101575.78;4964259;28;97741;-62
2022/03/08 11:00:00;;;;;;;;;;;;;;;36.30;27.91;101571.13;4962888;28;98506;-64
2022/03/08 11:02:26;;;;;;;;;;;;;;;35.87;26.86;101574.38;4963271;28;125705;-64
2022/03/08 11:05:09;;;;;;;;;;;;;;;35.35;25.94;101565.97;4962403;28;127770;-65
2022/03/08 11:07:35;;;;;;;;;;;;;;;34.80;25.36;101572.31;4963914;28;97804;-64
2022/03/08 11:10:06;;;;;;;;;;;;;;;34.31;24.63;101567.69;4962254;28;111956;-62
2022/03/08 11:12:32;;;;;;;;;;;;;;;33.82;24.22;101558.97;4944631;28;121992;-64
2022/03/08 11:14:58;;;;;;;;;;;;;;;33.34;23.95;101556.56;4962209;28;120216;-64
2022/03/08 11:17:24;;;;;;;;;;;;;;;32.94;23.77;101564.06;4960477;28;113090;-65
2022/03/08 11:19:50;;;;;;;;;;;;;;;32.64;23.38;101569.13;4975068;28;98841;-62
2022/03/08 11:22:17;;;;;;;;;;;;;;;32.38;23.40;101568.16;4978621;28;127381;-62
2022/03/08 11:24:43;;;;;;;;;;;;;;;32.18;23.18;101569.66;4943101;28;98088;-63
2022/03/08 11:27:09;;;;;;;;;;;;;;;31.96;23.03;101571.53;4961581;28;98119;-62
2022/03/08 11:29:35;;;;;;;;;;;;;;;31.81;23.06;101569.78;4942484;28;120221;-64
2022/03/08 11:32:01;;;;;;;;;;;;;;;31.66;22.93;101574.44;4977615;28;128411;-63
2022/03/08 11:34:40;;;;;;;;;;;;;;;31.56;22.65;101575.97;4943751;28;98056;-63
2022/03/08 11:37:20;;;;;;;;;;;;;;;31.45;22.62;101575.84;4962688;28;107997;-65
2022/03/08 11:40:03;;;;;;;;;;;;;;;31.35;22.29;101567.41;4979061;28;98023;-63
2022/03/08 11:42:31;;;;;;;;;;;;;;;31.23;22.46;101562.88;4979236;28;98683;-63
2022/03/08 11:45:06;;;;;;;;;;;;;;;31.10;22.27;101553.22;4960316;28;98180;-62
2022/03/08 11:48:03;;;;;;;;;;;;;;;30.86;22.02;101549.78;4979785;28;97994;-62
2022/03/08 11:50:44;;;;;;;;;;;;;;;30.52;22.28;101543.38;4977133;28;99142;-64
2022/03/08 11:53:12;;;;;;;;;;;;;;;30.25;22.32;101548.97;4978115;28;99068;-65
2022/03/08 11:55:45;;;;;;;;;;;;;;;30.05;22.28;101545.47;4970013;28;98297;-62
2022/03/08 11:58:20;;;;;;;;;;;;;;;29.81;21.90;101538.38;4984216;28;97812;-63
2022/03/08 12:00:54;;;;;;;;;;;;;;;29.52;21.74;101531.53;4971228;28;115363;-65
2022/03/08 12:03:23;;;;;;;;;;;;;;;29.29;21.92;101527.97;4977267;28;118856;-64
2022/03/08 12:06:04;;;;;;;;;;;;;;;29.07;22.05;101524.78;4978578;28;98311;-63
2022/03/08 12:08:30;;;;;;;;;;;;;;;28.84;22.13;101521.16;4978650;28;98430;-63
2022/03/08 12:11:07;;;;;;;;;;;;;;;28.61;22.40;101515.53;4978667;28;99013;-65
2022/03/08 12:13:34;;;;;;;;;;;;;;;28.36;22.44;101513.06;4971235;28;98394;-63
2022/03/08 12:16:09;;;;;;;;;;;;;;;28.12;22.57;101508.56;4976012;28;122959;-65
2022/03/08 12:18:39;;;;;;;;;;;;;;;27.82;22.68;101507.47;4979024;28;99036;-65
2022/03/08 12:21:15;;;;;;;;;;;;;;;27.53;22.79;101501.22;4978237;28;99493;-63
2022/03/08 12:23:49;;;;;;;;;;;;;;;27.20;22.91;101507.13;4977979;28;98156;-65
2022/03/08 12:26:31;;;;;;;;;;;;;;;26.87;23.21;101505.41;4976680;28;98068;-63
2022/03/08 12:29:14;;;;;;;;;;;;;;;26.56;23.35;101502.53;4978865;28;97791;-65